Time;durP1;ratioP1;P1;durP2;ratioP2;P2;SDS_P1;SDS_P2;PMS_P1;PMS_P2;Temp;Humidity;BMP_temperature;BMP_pressure;BME280_temperature;BME280_humidity;BME280_pressure;Samples;Min_cycle;Max_cycle;Signal;HPM_P1;HPM_P2
2021/07/09 00:01:14;;;;;;;11.40;8.80;;;;;;;22.13;80.13;100662.66;93151;1209;68196;-67
2021/07/09 00:03:22;;;;;;;10.00;8.60;;;;;;;22.13;80.15;100668.16;93094;1202;84091;-62
2021/07/09 00:05:30;;;;;;;10.60;8.20;;;;;;;22.16;80.12;100673.16;93100;1209;74312;-63
2021/07/09 00:07:38;;;;;;;9.60;8.70;;;;;;;22.20;80.27;100666.03;93108;1209;81861;-63
2021/07/09 00:09:47;;;;;;;9.30;8.20;;;;;;;22.25;80.13;100663.32;93134;1208;68844;-63
2021/07/09 00:11:57;;;;;;;12.00;8.70;;;;;;;22.27;80.11;100656.50;93149;1208;69733;-63
2021/07/09 00:14:05;;;;;;;11.20;8.80;;;;;;;22.29;80.12;100650.72;93117;1208;85850;-63
2021/07/09 00:16:15;;;;;;;9.50;8.30;;;;;;;22.29;80.04;100643.30;93171;1209;74991;-64
2021/07/09 00:18:23;;;;;;;11.00;8.00;;;;;;;22.35;79.88;100635.92;93131;1209;81735;-70
2021/07/09 00:20:31;;;;;;;10.60;8.70;;;;;;;22.34;79.83;100623.23;93159;1208;66775;-69
2021/07/09 00:22:38;;;;;;;9.30;8.10;;;;;;;22.36;79.87;100632.05;93147;1208;70178;-61
2021/07/09 00:24:46;;;;;;;12.70;8.50;;;;;;;22.39;79.86;100623.28;93083;1214;84934;-63
2021/07/09 00:26:54;;;;;;;11.40;8.00;;;;;;;22.41;79.84;100615.61;93145;1209;74789;-63
2021/07/09 00:29:02;;;;;;;11.40;8.80;;;;;;;22.42;79.52;100613.66;93098;1204;81513;-69
2021/07/09 00:31:13;;;;;;;10.40;8.00;;;;;;;22.41;79.43;100612.02;93106;1206;66831;-69
2021/07/09 00:33:20;;;;;;;9.60;7.90;;;;;;;22.40;79.31;100613.94;92993;1213;67732;-69
2021/07/09 00:35:28;;;;;;;10.40;7.40;;;;;;;22.42;79.25;100616.41;93176;1208;85019;-70
2021/07/09 00:37:36;;;;;;;9.30;7.80;;;;;;;22.41;79.25;100618.36;93147;1208;75298;-69
2021/07/09 00:39:43;;;;;;;11.50;8.30;;;;;;;22.42;79.22;100614.50;93102;1209;81919;-69
2021/07/09 00:41:54;;;;;;;9.50;7.70;;;;;;;22.40;79.26;100624.95;93144;1208;67449;-69
2021/07/09 00:44:02;;;;;;;11.70;7.50;;;;;;;22.37;79.17;100622.72;93114;1209;69483;-70
2021/07/09 00:46:10;;;;;;;9.80;7.40;;;;;;;22.33;79.34;100616.89;93121;1208;85028;-69
2021/07/09 00:48:18;;;;;;;10.50;7.90;;;;;;;22.36;79.04;100610.03;93145;1208;75290;-70
2021/07/09 00:50:26;;;;;;;13.70;7.70;;;;;;;22.37;79.04;100628.22;93118;1209;80508;-68
2021/07/09 00:52:34;;;;;;;11.10;8.20;;;;;;;22.39;79.07;100661.02;93135;1209;65071;-66
2021/07/09 00:54:43;;;;;;;14.20;8.10;;;;;;;22.37;79.04;100760.36;93117;1209;69513;-70
2021/07/09 00:56:51;;;;;;;9.10;8.00;;;;;;;22.30;79.38;100801.84;93174;1208;85322;-68
2021/07/09 00:59:00;;;;;;;9.40;8.30;;;;;;;22.31;79.49;100788.91;93126;1206;74391;-72
2021/07/09 01:01:10;;;;;;;9.30;8.40;;;;;;;22.32;79.54;100809.86;93120;1209;81343;-71
2021/07/09 01:03:19;;;;;;;11.70;9.10;;;;;;;22.32;79.65;100772.16;93146;1209;66080;-64
2021/07/09 01:05:27;;;;;;;11.10;10.10;;;;;;;22.38;79.65;100808.84;93142;1209;67745;-63
2021/07/09 01:07:37;;;;;;;11.60;10.40;;;;;;;22.39;79.66;100815.19;93130;1209;86421;-64
2021/07/09 01:09:45;;;;;;;12.00;10.50;;;;;;;22.43;79.70;100817.16;93159;1209;75624;-66
2021/07/09 01:11:56;;;;;;;10.70;9.50;;;;;;;22.44;79.65;100798.72;93136;1208;81777;-64
2021/07/09 01:14:05;;;;;;;10.90;9.70;;;;;;;22.44;79.64;100816.08;93041;1209;67507;-66
2021/07/09 01:16:14;;;;;;;11.00;9.90;;;;;;;22.44;79.52;100838.11;93154;1208;68518;-64
2021/07/09 01:18:21;;;;;;;11.50;9.60;;;;;;;22.41;79.88;100849.63;93015;1211;84896;-70
2021/07/09 01:20:29;;;;;;;12.70;10.40;;;;;;;22.42;79.84;100858.70;93164;1209;75868;-69
2021/07/09 01:22:43;;;;;;;10.90;8.60;;;;;;;22.37;79.92;100858.64;93146;1208;82092;-63
2021/07/09 01:24:51;;;;;;;10.80;8.70;;;;;;;22.33;79.77;100853.64;93132;1208;68161;-69
2021/07/09 01:26:59;;;;;;;10.00;8.10;;;;;;;22.31;79.77;100865.99;93145;1213;70075;-66
2021/07/09 01:29:09;;;;;;;10.60;8.00;;;;;;;22.30;79.60;100853.34;93123;1208;86040;-70
2021/07/09 01:31:17;;;;;;;9.40;8.40;;;;;;;22.26;79.54;100852.17;93145;1208;73728;-71
2021/07/09 01:33:24;;;;;;;10.90;8.40;;;;;;;22.20;79.86;100850.43;93138;1209;81935;-63
2021/07/09 01:35:33;;;;;;;9.90;7.90;;;;;;;22.13;79.43;100856.14;93072;1213;67052;-63
2021/07/09 01:37:41;;;;;;;12.40;7.40;;;;;;;22.06;79.72;100858.22;93133;1208;69273;-65
2021/07/09 01:39:49;;;;;;;9.30;7.80;;;;;;;22.02;79.63;100864.50;93123;1208;85850;-63
2021/07/09 01:41:57;;;;;;;8.80;7.30;;;;;;;21.98;79.71;100879.83;93176;1208;75047;-64
2021/07/09 01:44:09;;;;;;;10.80;8.20;;;;;;;21.90;79.74;100870.09;93080;1213;80680;-66
2021/07/09 01:46:16;;;;;;;11.40;7.40;;;;;;;21.88;79.81;100865.93;93142;1206;67564;-66
2021/07/09 01:48:24;;;;;;;11.30;7.30;;;;;;;21.83;79.66;100849.32;93104;1208;68531;-62
2021/07/09 01:50:32;;;;;;;8.80;6.90;;;;;;;21.78;80.07;100843.75;93027;1211;86016;-62
2021/07/09 01:52:40;;;;;;;8.60;7.10;;;;;;;21.71;79.85;100832.91;93145;1216;75440;-68
2021/07/09 01:54:48;;;;;;;9.70;7.80;;;;;;;21.61;79.83;100814.36;93143;1209;81004;-68
2021/07/09 01:56:56;;;;;;;7.90;7.20;;;;;;;21.52;79.86;100791.11;93106;1209;65446;-69
2021/07/09 01:59:06;;;;;;;10.70;6.90;;;;;;;21.48;79.89;100773.44;93116;1209;67910;-70
2021/07/09 02:01:14;;;;;;;8.30;6.40;;;;;;;21.44;79.92;100755.80;93103;1209;86205;-69
2021/07/09 02:03:22;;;;;;;12.60;8.00;;;;;;;21.39;80.01;100736.48;93113;1208;74456;-63
2021/07/09 02:05:30;;;;;;;8.10;7.00;;;;;;;21.35;80.11;100727.06;93128;1216;81795;-63
2021/07/09 02:07:42;;;;;;;10.80;7.50;;;;;;;21.36;80.07;100719.66;93129;1209;66015;-70
2021/07/09 02:09:52;;;;;;;8.20;6.90;;;;;;;21.31;80.25;100717.67;93123;1209;69864;-68
2021/07/09 02:12:03;;;;;;;11.20;7.30;;;;;;;21.31;80.25;100723.17;93138;1209;86210;-69
2021/07/09 02:14:10;;;;;;;10.20;6.80;;;;;;;21.36;80.32;100720.49;93030;1212;75697;-64
2021/07/09 02:16:18;;;;;;;10.40;7.00;;;;;;;21.38;80.21;100723.81;93108;1209;80038;-62
2021/07/09 02:18:25;;;;;;;12.60;7.70;;;;;;;21.39;80.12;100730.15;93090;1209;67274;-63
2021/07/09 02:20:34;;;;;;;9.00;7.50;;;;;;;21.35;80.24;100740.80;93136;1216;69189;-64
2021/07/09 02:22:42;;;;;;;9.30;7.50;;;;;;;21.30;80.25;100754.47;93164;1208;85633;-68
2021/07/09 02:24:53;;;;;;;9.00;7.20;;;;;;;21.30;80.29;100756.38;93094;1208;74603;-67
2021/07/09 02:27:01;;;;;;;11.40;7.90;;;;;;;21.24;80.47;100760.13;93121;1216;81663;-69
2021/07/09 02:29:08;;;;;;;7.70;7.00;;;;;;;21.21;80.37;100769.70;93139;1216;66683;-69
2021/07/09 02:31:16;;;;;;;11.10;7.80;;;;;;;21.20;80.51;100776.30;93154;1209;68260;-68
2021/07/09 02:33:24;;;;;;;10.70;6.70;;;;;;;21.15;80.40;100773.48;92974;1206;84414;-68
2021/07/09 02:35:35;;;;;;;9.00;7.10;;;;;;;21.14;80.56;100767.14;93146;1208;74295;-68
2021/07/09 02:37:44;;;;;;;8.60;6.90;;;;;;;21.09;80.59;100757.98;93151;1209;81968;-63
2021/07/09 02:39:51;;;;;;;9.90;7.60;;;;;;;21.00;80.77;100751.19;93139;1209;66725;-62
2021/07/09 02:42:01;;;;;;;12.50;7.60;;;;;;;20.96;80.83;100741.77;93127;1216;69433;-63
2021/07/09 02:44:09;;;;;;;9.40;6.40;;;;;;;20.94;80.94;100721.97;93127;1208;86132;-63
2021/07/09 02:46:16;;;;;;;8.00;7.00;;;;;;;20.93;80.82;100704.65;93131;1209;74971;-61
2021/07/09 02:48:24;;;;;;;10.00;7.40;;;;;;;20.93;81.10;100687.36;93094;1208;81440;-63
2021/07/09 02:50:34;;;;;;;9.00;7.70;;;;;;;20.97;81.09;100685.77;93156;1208;66778;-63
2021/07/09 02:52:42;;;;;;;10.10;7.80;;;;;;;21.07;80.97;100677.70;93164;1207;68094;-72
2021/07/09 02:54:50;;;;;;;9.00;8.00;;;;;;;21.11;80.99;100665.98;93133;1209;85529;-68
2021/07/09 02:56:58;;;;;;;11.50;7.50;;;;;;;21.10;80.99;100661.56;93108;1213;73701;-69
2021/07/09 02:59:08;;;;;;;9.10;7.70;;;;;;;21.15;80.95;100666.31;93094;1209;81669;-67
2021/07/09 03:01:16;;;;;;;11.40;7.90;;;;;;;21.11;81.02;100663.23;93131;1208;65823;-67
2021/07/09 03:03:23;;;;;;;10.60;7.50;;;;;;;21.11;80.87;100668.73;93109;1209;67886;-68
2021/07/09 03:05:31;;;;;;;8.70;6.80;;;;;;;21.07;81.14;100673.05;93136;1208;85505;-69
2021/07/09 03:07:39;;;;;;;8.50;7.10;;;;;;;21.11;80.73;100668.73;93131;1208;74222;-68
2021/07/09 03:09:46;;;;;;;7.80;6.20;;;;;;;21.19;80.82;100675.70;93104;1208;81153;-68
2021/07/09 03:11:54;;;;;;;7.80;6.80;;;;;;;21.23;80.91;100670.55;93125;1208;66835;-69
2021/07/09 03:14:02;;;;;;;10.60;7.10;;;;;;;21.30;80.76;100677.52;93151;1209;67979;-69
2021/07/09 03:16:09;;;;;;;9.80;7.10;;;;;;;21.34;80.69;100672.36;93090;1209;86551;-69
2021/07/09 03:18:20;;;;;;;11.30;7.80;;;;;;;21.44;80.69;100654.09;93145;1209;74530;-69
2021/07/09 03:20:28;;;;;;;10.30;6.90;;;;;;;21.53;80.43;100636.07;93012;1211;81273;-69
2021/07/09 03:22:36;;;;;;;8.10;7.10;;;;;;;21.60;80.47;100622.95;93081;1209;65332;-68
2021/07/09 03:24:43;;;;;;;11.00;8.70;;;;;;;21.68;80.19;100614.25;93128;1209;68146;-68
2021/07/09 03:26:51;;;;;;;11.20;8.40;;;;;;;21.72;80.07;100615.41;93107;1209;85897;-68
2021/07/09 03:28:59;;;;;;;17.10;11.60;;;;;;;21.78;79.87;100603.36;93101;1209;77128;-69
2021/07/09 03:31:06;;;;;;;26.10;16.30;;;;;;;21.86;79.83;100598.50;93142;1209;81736;-69
2021/07/09 03:33:14;;;;;;;26.60;16.30;;;;;;;22.03;79.82;100602.83;93012;1206;67879;-68
2021/07/09 03:35:22;;;;;;;28.00;16.80;;;;;;;22.12;79.73;100598.53;93157;1213;68148;-69
2021/07/09 03:37:32;;;;;;;20.80;13.40;;;;;;;22.24;79.36;100579.95;93155;1208;85556;-67
2021/07/09 03:39:40;;;;;;;11.80;8.50;;;;;;;22.42;79.34;100578.70;93129;1209;75038;-67
2021/07/09 03:41:48;;;;;;;9.00;7.60;;;;;;;22.90;79.21;100573.05;93131;1208;81303;-69
2021/07/09 03:43:56;;;;;;;10.80;7.20;;;;;;;23.35;78.47;100563.34;93095;1209;66798;-69
2021/07/09 03:46:04;;;;;;;9.20;6.40;;;;;;;23.67;77.88;100553.03;93011;1211;69608;-69
2021/07/09 03:48:12;;;;;;;9.10;6.60;;;;;;;23.75;77.13;100552.50;93158;1209;85584;-64
2021/07/09 03:50:19;;;;;;;8.30;7.40;;;;;;;23.86;76.91;100556.94;93125;1209;76479;-65
2021/07/09 03:52:30;;;;;;;8.30;6.60;;;;;;;24.14;75.66;100552.05;93150;1210;82285;-68
2021/07/09 03:54:38;;;;;;;8.50;6.80;;;;;;;24.61;75.84;100555.36;93091;1216;67093;-68
2021/07/09 03:56:48;;;;;;;9.80;6.20;;;;;;;24.90;75.17;100561.97;93010;1209;69377;-69
2021/07/09 03:59:01;;;;;;;8.30;6.20;;;;;;;25.46;74.34;100550.73;93084;1209;85528;-67
2021/07/09 04:01:09;;;;;;;7.30;6.50;;;;;;;26.04;73.49;100549.84;93151;1209;76071;-68
2021/07/09 04:03:16;;;;;;;8.90;6.80;;;;;;;26.43;71.37;100569.24;93141;1208;81039;-69
2021/07/09 04:05:24;;;;;;;7.90;6.10;;;;;;;26.80;71.89;100583.37;93143;1209;67164;-68
2021/07/09 04:07:35;;;;;;;8.90;6.80;;;;;;;27.20;70.88;100581.27;93134;1208;68552;-64
2021/07/09 04:09:42;;;;;;;8.00;5.80;;;;;;;27.47;69.80;100573.20;93109;1209;86895;-64
2021/07/09 04:11:50;;;;;;;7.60;5.50;;;;;;;27.53;68.02;100569.24;93165;1208;75001;-63
2021/07/09 04:13:57;;;;;;;7.00;5.30;;;;;;;27.25;67.72;100561.81;93138;1216;80322;-64
2021/07/09 04:16:06;;;;;;;9.30;6.20;;;;;;;27.42;67.37;100538.02;93098;1216;65676;-62
2021/07/09 04:18:13;;;;;;;8.30;6.30;;;;;;;27.49;67.07;100521.85;93139;1208;67896;-69
2021/07/09 04:20:21;;;;;;;10.50;6.10;;;;;;;27.56;66.10;100531.73;93104;1209;85879;-69
2021/07/09 04:22:29;;;;;;;7.60;5.70;;;;;;;27.08;65.69;100520.67;93166;1211;74029;-64
2021/07/09 04:24:40;;;;;;;10.20;6.30;;;;;;;27.20;66.32;100525.78;93097;1209;81371;-64
2021/07/09 04:26:47;;;;;;;7.10;5.90;;;;;;;26.70;65.10;100538.26;93118;1209;66670;-64
2021/07/09 04:28:55;;;;;;;9.00;6.50;;;;;;;25.98;65.77;100525.27;93131;1209;68484;-68
2021/07/09 04:31:02;;;;;;;7.30;6.60;;;;;;;25.49;66.33;100517.00;93126;1216;86186;-68
2021/07/09 04:33:10;;;;;;;8.10;5.90;;;;;;;24.94;66.91;100520.78;93123;1216;73745;-64
2021/07/09 04:35:18;;;;;;;8.50;6.30;;;;;;;24.68;67.96;100522.73;93152;1209;81991;-63
2021/07/09 04:37:26;;;;;;;8.10;6.40;;;;;;;24.48;68.13;100525.52;93110;1209;66327;-66
2021/07/09 04:39:33;;;;;;;8.00;6.80;;;;;;;24.23;68.44;100525.55;93145;1209;69061;-69
2021/07/09 04:41:41;;;;;;;7.40;6.20;;;;;;;24.14;69.33;100528.03;93121;1208;86242;-69
2021/07/09 04:43:52;;;;;;;8.70;6.00;;;;;;;24.11;69.48;100517.53;93127;1208;75241;-63
2021/07/09 04:46:00;;;;;;;11.20;7.10;;;;;;;24.04;69.28;100530.73;93103;1208;81537;-63
2021/07/09 04:48:09;;;;;;;9.00;6.40;;;;;;;24.12;69.58;100532.17;93128;1209;67272;-69
2021/07/09 04:50:17;;;;;;;8.70;6.50;;;;;;;24.28;70.02;100528.31;93184;1208;68017;-70
2021/07/09 04:52:25;;;;;;;8.40;6.20;;;;;;;24.61;69.88;100538.78;93118;1209;84472;-68
2021/07/09 04:54:32;;;;;;;9.30;6.20;;;;;;;25.30;69.58;100530.58;93077;1208;75403;-67
2021/07/09 04:56:40;;;;;;;9.70;6.00;;;;;;;26.43;69.20;100524.08;93080;1209;81473;-69
2021/07/09 04:58:48;;;;;;;7.70;6.10;;;;;;;26.60;67.54;100528.08;93134;1208;66668;-63
2021/07/09 05:00:55;;;;;;;8.30;6.60;;;;;;;26.27;67.40;100527.00;93123;1216;69644;-62
2021/07/09 05:03:04;;;;;;;8.00;5.70;;;;;;;25.94;66.98;100535.24;93138;1209;85763;-64
2021/07/09 05:05:16;;;;;;;7.70;6.20;;;;;;;25.68;66.95;100531.83;93153;1209;73911;-63
2021/07/09 05:07:23;;;;;;;7.30;5.80;;;;;;;25.49;67.41;100528.06;93119;1209;81669;-63
2021/07/09 05:09:31;;;;;;;7.10;6.30;;;;;;;25.67;67.75;100521.86;93126;1213;66465;-63
2021/07/09 05:11:39;;;;;;;7.20;5.90;;;;;;;26.78;67.65;100523.79;93107;1208;69693;-63
2021/07/09 05:13:46;;;;;;;6.50;5.80;;;;;;;27.66;65.93;100520.51;93094;1213;84524;-68
2021/07/09 05:15:54;;;;;;;6.60;5.90;;;;;;;27.86;65.12;100523.80;93114;1216;74595;-69
2021/07/09 05:18:05;;;;;;;9.80;6.00;;;;;;;29.00;64.05;100510.20;93123;1209;81174;-62
2021/07/09 05:20:17;;;;;;;6.10;5.40;;;;;;;30.00;63.12;100511.92;93152;1213;66539;-63
2021/07/09 05:22:25;;;;;;;8.10;5.70;;;;;;;30.13;59.79;100502.70;93144;1209;69264;-69
2021/07/09 05:24:36;;;;;;;8.20;5.80;;;;;;;30.76;59.00;100508.05;93138;1207;85118;-68
2021/07/09 05:26:46;;;;;;;6.70;6.00;;;;;;;31.44;58.55;100496.32;93148;1204;75030;-69
2021/07/09 05:28:53;;;;;;;7.40;5.50;;;;;;;32.17;57.48;100497.38;93054;1209;81775;-66
2021/07/09 05:31:01;;;;;;;8.50;5.20;;;;;;;32.51;55.07;100490.91;93137;1209;67163;-68
2021/07/09 05:33:10;;;;;;;8.30;5.70;;;;;;;33.13;54.90;100491.20;93115;1209;69320;-68
2021/07/09 05:35:18;;;;;;;6.60;5.20;;;;;;;33.57;49.09;100501.05;93146;1209;84913;-68
2021/07/09 05:37:29;;;;;;;5.90;5.30;;;;;;;33.50;50.90;100500.72;93178;1209;74675;-67
2021/07/09 05:39:37;;;;;;;7.20;5.10;;;;;;;33.64;49.17;100504.13;93114;1209;81834;-66
2021/07/09 05:41:48;;;;;;;6.40;5.30;;;;;;;34.05;50.73;100498.51;93136;1209;65773;-68
2021/07/09 05:43:59;;;;;;;5.60;4.50;;;;;;;34.56;49.10;100497.19;93171;1216;69269;-67
2021/07/09 05:46:06;;;;;;;9.30;5.20;;;;;;;34.18;47.79;100485.38;93155;1213;86469;-67
2021/07/09 05:48:17;;;;;;;8.60;5.10;;;;;;;34.20;48.19;100488.68;93134;1214;76674;-65
2021/07/09 05:50:28;;;;;;;6.30;5.10;;;;;;;34.35;47.22;100482.41;93166;1206;80571;-64
2021/07/09 05:52:35;;;;;;;7.30;4.70;;;;;;;34.60;46.35;100488.93;93158;1204;66242;-68
2021/07/09 05:54:43;;;;;;;7.80;5.20;;;;;;;35.14;45.77;100481.98;93019;1211;69164;-71
2021/07/09 05:56:50;;;;;;;7.60;4.70;;;;;;;35.40;45.26;100490.88;93173;1208;84913;-67
2021/07/09 05:58:58;;;;;;;7.00;5.20;;;;;;;35.41;42.09;100491.67;93145;1216;74531;-68
2021/07/09 06:01:06;;;;;;;6.30;4.90;;;;;;;35.32;43.35;100491.00;93109;1208;80093;-70
2021/07/09 06:03:13;;;;;;;6.40;4.30;;;;;;;35.52;44.43;100492.83;93097;1208;67385;-67
2021/07/09 06:05:21;;;;;;;5.70;5.00;;;;;;;35.82;43.42;100499.82;93122;1208;68954;-67
2021/07/09 06:07:31;;;;;;;6.20;4.90;;;;;;;36.24;44.16;100502.28;93057;1208;85737;-65
2021/07/09 06:09:42;;;;;;;6.10;5.40;;;;;;;36.70;43.21;100509.23;93094;1209;74579;-63
2021/07/09 06:11:50;;;;;;;5.80;4.50;;;;;;;37.05;43.38;100521.45;93095;1208;80135;-64
2021/07/09 06:13:58;;;;;;;5.10;4.60;;;;;;;36.96;42.35;100523.63;93140;1208;65981;-64
2021/07/09 06:16:09;;;;;;;6.60;4.90;;;;;;;37.17;41.38;100535.43;93131;1208;69338;-64
2021/07/09 06:18:17;;;;;;;7.20;4.60;;;;;;;36.83;41.99;100536.95;93131;1209;84732;-68
2021/07/09 06:20:25;;;;;;;8.10;4.60;;;;;;;37.34;41.46;100532.23;93152;1208;73996;-68
2021/07/09 06:22:33;;;;;;;6.40;4.60;;;;;;;37.65;41.48;100540.68;93105;1208;80289;-67
2021/07/09 06:24:41;;;;;;;6.30;5.20;;;;;;;36.92;40.98;100520.67;93142;1208;67219;-68
2021/07/09 06:26:49;;;;;;;44.20;39.90;;;;;;;35.83;41.91;100534.39;93143;1208;69617;-66
2021/07/09 06:28:56;;;;;;;18.80;17.20;;;;;;;35.01;43.03;100525.27;93114;1208;86539;-68
2021/07/09 06:31:04;;;;;;;6.10;5.50;;;;;;;34.36;43.57;100523.33;93164;1209;75112;-69
2021/07/09 06:33:12;;;;;;;7.30;5.50;;;;;;;34.24;44.26;100526.91;93122;1208;80541;-68
2021/07/09 06:35:20;;;;;;;7.70;5.50;;;;;;;35.18;43.55;100532.68;93153;1213;66400;-68
2021/07/09 06:37:28;;;;;;;6.30;5.30;;;;;;;35.64;42.54;100539.82;93160;1209;69027;-68
2021/07/09 06:39:35;;;;;;;5.50;4.80;;;;;;;36.07;42.49;100537.98;93153;1205;86170;-68
2021/07/09 06:41:46;;;;;;;6.60;4.90;;;;;;;36.52;41.31;100542.52;93146;1208;74789;-67
2021/07/09 06:43:54;;;;;;;6.70;4.90;;;;;;;36.67;41.07;100559.44;93131;1206;81311;-67
2021/07/09 06:46:01;;;;;;;6.30;5.70;;;;;;;35.89;42.54;100572.34;93129;1208;66574;-67
2021/07/09 06:48:10;;;;;;;8.00;5.40;;;;;;;35.16;43.49;100580.77;92954;1209;68304;-63
2021/07/09 06:50:18;;;;;;;7.60;5.60;;;;;;;34.39;44.05;100587.17;92953;1208;84582;-62
2021/07/09 06:52:26;;;;;;;6.50;5.90;;;;;;;33.52;44.63;100588.05;92956;1209;73782;-68
2021/07/09 06:54:33;;;;;;;6.10;5.30;;;;;;;32.99;46.00;100589.39;92922;1209;80966;-68
2021/07/09 06:56:41;;;;;;;6.90;5.00;;;;;;;32.34;47.43;100586.02;92931;1208;67191;-68
2021/07/09 06:58:51;;;;;;;6.30;5.70;;;;;;;32.16;47.88;100584.39;92918;1209;69458;-67
2021/07/09 07:00:59;;;;;;;9.20;5.90;;;;;;;31.87;48.55;100583.02;92952;1208;85705;-67
2021/07/09 07:03:07;;;;;;;9.00;5.50;;;;;;;31.65;49.55;100597.09;92976;1209;74698;-67
2021/07/09 07:05:17;;;;;;;7.60;5.50;;;;;;;31.44;50.43;100584.86;93002;1208;82059;-67
2021/07/09 07:07:24;;;;;;;7.20;6.10;;;;;;;31.47;50.38;100579.48;92945;1215;66748;-67
2021/07/09 07:09:32;;;;;;;6.90;6.20;;;;;;;31.66;50.72;100565.23;92965;1213;69320;-67
2021/07/09 07:11:39;;;;;;;7.20;6.40;;;;;;;31.80;51.22;100565.92;92974;1208;86018;-67
2021/07/09 07:13:47;;;;;;;10.80;6.30;;;;;;;32.79;50.79;100564.94;92849;1201;74487;-67
2021/07/09 07:15:55;;;;;;;6.50;5.80;;;;;;;33.65;50.02;100557.02;92970;1209;81298;-68
2021/07/09 07:18:08;;;;;;;6.40;5.80;;;;;;;34.44;48.51;100536.45;92919;1208;66609;-67
2021/07/09 07:20:17;;;;;;;7.30;5.50;;;;;;;35.66;46.80;100527.05;92935;1208;69288;-68
2021/07/09 07:22:28;;;;;;;7.90;5.90;;;;;;;36.39;46.18;100529.66;93024;1206;86960;-67
2021/07/09 07:24:35;;;;;;;8.90;6.20;;;;;;;36.83;43.83;100525.69;92934;1209;74245;-66
2021/07/09 07:26:46;;;;;;;6.90;5.50;;;;;;;37.40;43.31;100530.78;92824;1209;80600;-67
2021/07/09 07:28:54;;;;;;;7.00;5.40;;;;;;;37.93;41.37;100529.26;93310;1161;66035;-67
2021/07/09 07:31:02;;;;;;;6.90;5.20;;;;;;;38.22;41.16;100525.02;93110;1209;68109;-67
2021/07/09 07:33:10;;;;;;;6.10;5.60;;;;;;;38.30;40.18;100526.79;93091;1210;84407;-64
2021/07/09 07:35:18;;;;;;;7.00;6.00;;;;;;;38.62;40.54;100516.98;93125;1209;74454;-64
2021/07/09 07:37:26;;;;;;;7.70;5.60;;;;;;;38.78;39.79;100528.20;93154;1209;82062;-66
2021/07/09 07:39:37;;;;;;;7.60;5.60;;;;;;;38.82;39.59;100527.06;93078;1208;67052;-67
2021/07/09 07:41:44;;;;;;;6.70;5.80;;;;;;;38.89;39.19;100518.73;93058;1210;68445;-67
2021/07/09 07:43:52;;;;;;;6.50;5.80;;;;;;;38.01;38.52;100525.40;93038;1208;85459;-65
2021/07/09 07:45:59;;;;;;;9.00;5.40;;;;;;;36.64;40.53;100517.13;93095;1208;75062;-65
2021/07/09 07:48:09;;;;;;;7.40;5.60;;;;;;;36.05;41.50;100526.28;93046;1210;81944;-64
2021/07/09 07:50:21;;;;;;;7.10;5.50;;;;;;;36.55;41.43;100520.11;93108;1214;66810;-64
2021/07/09 07:52:27;;;;;;;;;;;;;;;37.38;41.29;100519.06;93087;1209;69694;-64
2021/07/09 07:54:35;;;;;;;8.50;6.60;;;;;;;37.59;40.29;100524.41;92856;1208;86268;-63
2021/07/09 07:56:42;;;;;;;6.80;5.90;;;;;;;37.55;39.91;100534.80;93081;1209;75397;-64
2021/07/09 07:58:53;;;;;;;7.10;5.90;;;;;;;37.49;40.22;100531.45;93077;1209;81091;-68
2021/07/09 08:01:01;;;;;;;6.80;6.20;;;;;;;37.30;39.85;100528.53;93092;1209;66398;-68
2021/07/09 08:03:08;;;;;;;6.30;5.70;;;;;;;37.66;40.27;100531.02;93116;1215;69174;-65
2021/07/09 08:05:17;;;;;;;6.50;5.90;;;;;;;38.39;39.21;100524.59;93102;1208;85024;-65
2021/07/09 08:07:25;;;;;;;7.50;6.50;;;;;;;39.15;37.95;100526.42;93062;1209;74977;-66
2021/07/09 08:09:33;;;;;;;6.60;5.90;;;;;;;38.77;37.53;100532.20;93060;1209;81928;-67
2021/07/09 08:11:40;;;;;;;8.90;6.10;;;;;;;38.10;38.17;100528.80;93106;1202;66605;-68
2021/07/09 08:13:48;;;;;;;6.90;6.20;;;;;;;37.21;39.63;100527.89;93097;1209;68340;-64
2021/07/09 08:15:56;;;;;;;7.80;6.60;;;;;;;36.58;40.31;100536.28;93097;1208;86072;-62
2021/07/09 08:18:04;;;;;;;8.20;6.60;;;;;;;36.08;40.46;100541.63;93082;1208;74952;-63
2021/07/09 08:20:16;;;;;;;6.60;5.80;;;;;;;35.59;41.71;100540.06;93092;1209;81962;-62
2021/07/09 08:22:24;;;;;;;7.20;6.40;;;;;;;34.94;42.25;100541.88;93098;1209;67261;-63
2021/07/09 08:24:32;;;;;;;7.10;6.40;;;;;;;34.74;43.61;100531.54;92845;1214;69428;-63
2021/07/09 08:26:40;;;;;;;7.80;6.70;;;;;;;34.94;43.97;100523.02;93074;1208;86442;-62
2021/07/09 08:28:48;;;;;;;8.40;6.30;;;;;;;34.68;43.22;100541.34;93084;1208;74581;-62
2021/07/09 08:30:59;;;;;;;8.30;6.90;;;;;;;34.35;43.73;100563.77;93050;1215;82247;-62
2021/07/09 08:33:06;;;;;;;6.80;6.20;;;;;;;34.30;44.22;100587.25;93058;1209;67281;-68
2021/07/09 08:35:15;;;;;;;13.90;7.20;;;;;;;34.10;45.11;100593.67;93085;1213;68003;-68
2021/07/09 08:37:23;;;;;;;10.00;6.30;;;;;;;33.87;46.11;100589.52;93095;1209;86325;-69
2021/07/09 08:39:31;;;;;;;8.10;7.30;;;;;;;33.54;46.10;100586.55;93083;1208;75320;-69
2021/07/09 08:41:40;;;;;;;7.20;6.20;;;;;;;34.15;47.97;100579.44;93068;1207;80688;-69
2021/07/09 08:43:48;;;;;;;7.10;6.40;;;;;;;35.42;46.41;100578.45;93121;1213;66368;-68
2021/07/09 08:45:56;;;;;;;8.70;6.90;;;;;;;35.80;46.19;100577.28;93078;1209;68746;-69
2021/07/09 08:48:09;;;;;;;8.10;6.80;;;;;;;36.53;45.71;100575.97;93096;1209;85827;-63
2021/07/09 08:50:20;;;;;;;7.70;6.40;;;;;;;36.86;44.65;100555.13;93098;1205;76491;-63
2021/07/09 08:52:30;;;;;;;8.50;6.90;;;;;;;36.73;43.25;100540.28;93098;1209;80685;-68
2021/07/09 08:54:39;;;;;;;8.20;6.50;;;;;;;36.47;42.91;100546.40;93084;1209;66940;-69
2021/07/09 08:56:48;;;;;;;8.80;6.70;;;;;;;36.45;43.21;100553.56;93127;1209;68593;-69
2021/07/09 08:58:55;;;;;;;9.80;6.70;;;;;;;36.13;43.50;100558.25;93091;1209;86127;-63
2021/07/09 09:01:04;;;;;;;6.70;6.00;;;;;;;36.03;45.20;100570.01;93100;1209;75003;-63
2021/07/09 09:03:18;;;;;;;6.90;6.20;;;;;;;35.97;44.95;100563.78;93093;1215;80167;-69
2021/07/09 09:05:29;;;;;;;6.80;5.80;;;;;;;35.15;44.04;100555.84;93119;1209;65791;-69
2021/07/09 09:07:37;;;;;;;7.40;6.70;;;;;;;34.26;45.07;100557.41;93136;1209;69428;-63
2021/07/09 09:09:48;;;;;;;7.30;6.70;;;;;;;33.48;46.11;100564.69;93078;1215;85642;-63
2021/07/09 09:12:14;;;;;;;9.70;6.50;;;;;;;32.80;46.65;100554.57;93094;1209;74681;-63
2021/07/09 09:14:28;;;;;;;9.90;6.90;;;;;;;32.59;47.84;100537.66;93109;1209;81986;-63
2021/07/09 09:16:36;;;;;;;8.20;7.40;;;;;;;33.56;48.32;100511.41;93087;1209;67283;-62
2021/07/09 09:18:49;;;;;;;12.90;7.20;;;;;;;33.96;47.09;100516.55;93080;1214;69278;-62
2021/07/09 09:21:02;;;;;;;8.70;6.60;;;;;;;33.90;46.62;100515.94;93122;1208;86303;-62
2021/07/09 09:23:12;;;;;;;7.30;6.60;;;;;;;33.49;47.37;100513.08;93115;1209;74886;-68
2021/07/09 09:25:23;;;;;;;9.10;6.90;;;;;;;33.55;48.10;100495.73;93105;1209;82536;-68
2021/07/09 09:27:30;;;;;;;7.90;7.00;;;;;;;33.48;48.61;100501.08;93081;1209;66707;-62
2021/07/09 09:29:39;;;;;;;8.10;7.30;;;;;;;33.09;47.81;100493.88;93046;1209;69490;-62
2021/07/09 09:31:55;;;;;;;12.00;7.10;;;;;;;33.19;47.78;100482.29;92858;1208;86249;-62
2021/07/09 09:34:07;;;;;;;8.60;7.80;;;;;;;33.33;47.27;100462.44;93104;1203;74944;-67
2021/07/09 09:36:14;;;;;;;8.60;7.80;;;;;;;33.54;47.88;100468.87;93066;1209;81262;-67
2021/07/09 09:38:29;;;;;;;9.90;7.60;;;;;;;33.71;47.26;100473.55;93118;1209;66620;-61
2021/07/09 09:40:39;;;;;;;8.80;7.90;;;;;;;33.48;47.68;100480.64;93130;1209;68770;-62
2021/07/09 09:42:47;;;;;;;9.90;7.50;;;;;;;33.53;47.97;100486.03;93081;1209;85015;-68
2021/07/09 09:45:05;;;;;;;10.40;8.50;;;;;;;33.44;48.14;100483.29;93134;1209;73833;-68
2021/07/09 09:47:19;;;;;;;9.30;7.50;;;;;;;33.19;48.39;100496.29;93118;1209;81092;-68
2021/07/09 09:49:34;;;;;;;9.50;7.60;;;;;;;33.36;48.60;100503.77;93113;1208;67743;-68
2021/07/09 09:51:41;;;;;;;8.50;7.30;;;;;;;33.27;48.26;100507.80;93106;1209;68270;-68
2021/07/09 09:53:53;;;;;;;8.10;7.30;;;;;;;33.31;47.79;100506.78;93153;1209;86011;-63
2021/07/09 09:56:10;;;;;;;8.20;7.40;;;;;;;33.36;47.38;100505.75;93103;1209;75597;-62